Time;durP1;ratioP1;P1;durP2;ratioP2;P2;SDS_P1;SDS_P2;PMS_P1;PMS_P2;Temp;Humidity;BMP_temperature;BMP_pressure;BME280_temperature;BME280_humidity;BME280_pressure;Samples;Min_cycle;Max_cycle;Signal;HPM_P1;HPM_P2
2022/10/30 00:00:58;;;;;;;9.27;8.57;;;;;;;9.23;100.00;-18038.44;5051357;28;20569;-55
2022/10/30 00:03:25;;;;;;;9.27;8.47;;;;;;;9.26;100.00;-18041.03;5053858;28;20186;-55
2022/10/30 00:05:52;;;;;;;8.33;7.93;;;;;;;9.37;100.00;-18043.81;5054653;28;20189;-57
2022/10/30 00:08:21;;;;;;;11.27;9.03;;;;;;;9.38;100.00;-18044.03;5054705;28;20220;-56
2022/10/30 00:10:50;;;;;;;8.73;8.13;;;;;;;9.10;100.00;-18037.41;5054917;28;20181;-56
2022/10/30 00:13:17;;;;;;;10.10;9.07;;;;;;;9.03;100.00;-18033.84;5055182;28;20584;-57
2022/10/30 00:15:47;;;;;;;9.23;8.50;;;;;;;9.12;100.00;-18036.03;5054813;28;20201;-57
2022/10/30 00:18:15;;;;;;;9.83;8.33;;;;;;;9.15;100.00;-17719.69;5054650;28;20231;-56
2022/10/30 00:20:41;;;;;;;10.60;9.07;;;;;;;9.22;100.00;-18038.19;5054638;28;20186;-56
2022/10/30 00:23:08;;;;;;;9.03;8.53;;;;;;;9.21;100.00;-18038.06;5054617;28;20195;-57
2022/10/30 00:25:36;;;;;;;8.90;8.17;;;;;;;9.00;100.00;-17082.00;5054882;28;20561;-56
2022/10/30 00:28:04;;;;;;;9.40;8.50;;;;;;;8.97;100.00;-17081.31;5054444;28;20213;-57
2022/10/30 00:30:32;;;;;;;8.57;8.03;;;;;;;8.95;100.00;-16446.75;5054397;28;20228;-56
2022/10/30 00:32:58;;;;;;;8.90;8.20;;;;;;;8.82;100.00;-16760.94;5054360;28;20192;-56
2022/10/30 00:35:25;;;;;;;8.73;8.33;;;;;;;8.97;100.00;-17081.31;5054411;28;20192;-59
2022/10/30 00:37:52;;;;;;;9.40;8.63;;;;;;;8.98;100.00;-16764.59;5054272;28;20196;-56
2022/10/30 00:40:19;;;;;;;8.87;7.97;;;;;;;9.02;100.00;-16765.38;5054601;28;20239;-56
2022/10/30 00:42:46;;;;;;;8.23;7.77;;;;;;;8.86;100.00;-15176.41;5054295;28;20181;-56
2022/10/30 00:45:16;;;;;;;8.77;8.37;;;;;;;8.91;100.00;-15811.69;5054424;28;20213;-56
2022/10/30 00:47:46;;;;;;;9.17;8.67;;;;;;;8.95;100.00;-16129.75;5054560;28;20247;-57
2022/10/30 00:50:17;;;;;;;8.53;8.10;;;;;;;8.96;100.00;-17081.09;5054009;28;20186;-55
2022/10/30 00:52:47;;;;;;;8.53;7.97;;;;;;;9.20;100.00;-17403.53;5054398;28;20625;-56
2022/10/30 00:55:19;;;;;;;9.17;8.27;;;;;;;9.27;100.00;-17722.41;5054055;28;20189;-57
2022/10/30 00:57:47;;;;;;;8.17;7.70;;;;;;;9.07;100.00;-18034.69;5053887;28;20186;-55
2022/10/30 01:00:17;;;;;;;8.93;8.23;;;;;;;9.04;100.00;-18035.81;5054048;28;20193;-56
2022/10/30 01:02:44;;;;;;;7.73;7.33;;;;;;;9.10;100.00;-18037.41;5054016;28;20186;-57
2022/10/30 01:05:16;;;;;;;6.43;6.13;;;;;;;9.19;100.00;-18039.44;5053742;28;20186;-55
2022/10/30 01:07:45;;;;;;;6.73;5.97;;;;;;;9.13;100.00;-18038.00;5053736;28;20209;-57
2022/10/30 01:10:13;;;;;;;7.20;6.50;;;;;;;9.20;100.00;-18039.56;5053635;28;20288;-57
2022/10/30 01:12:42;;;;;;;7.90;7.40;;;;;;;9.08;100.00;-18036.78;5053682;28;20200;-57
2022/10/30 01:15:11;;;;;;;7.87;7.37;;;;;;;9.00;100.00;-18034.97;5053566;28;20290;-56
2022/10/30 01:18:03;;;;;;;7.00;6.43;;;;;;;9.02;100.00;-18035.47;5052710;28;20203;-57
2022/10/30 01:21:02;;;;;;;8.53;6.57;;;;;;;9.15;100.00;-18038.47;5053673;28;20200;-56
2022/10/30 01:23:38;;;;;;;7.23;6.73;;;;;;;9.04;100.00;-18035.81;5053019;28;20201;-57
2022/10/30 01:26:14;;;;;;;7.43;7.03;;;;;;;9.05;100.00;-18036.06;5053639;28;20181;-56
2022/10/30 01:28:59;;;;;;;11.47;10.50;;;;;;;9.10;100.00;-18037.28;5053297;28;20236;-55
2022/10/30 01:31:41;;;;;;;12.20;11.57;;;;;;;9.13;100.00;-18038.00;5053464;28;20225;-57
2022/10/30 01:34:19;;;;;;;17.00;15.80;;;;;;;9.18;100.00;-18039.34;5053533;28;20197;-56
2022/10/30 01:36:52;;;;;;;19.47;18.10;;;;;;;9.08;100.00;-18034.94;5053405;28;20280;-56
2022/10/30 01:39:22;;;;;;;31.73;23.10;;;;;;;9.15;100.00;-18036.63;5053327;28;20193;-56
2022/10/30 01:41:48;;;;;;;28.53;25.20;;;;;;;9.20;100.00;-18037.84;5053635;28;20189;-56
2022/10/30 01:44:20;;;;;;;27.03;24.53;;;;;;;9.06;100.00;-18036.31;5053377;28;20189;-57
2022/10/30 01:47:12;;;;;;;24.73;22.40;;;;;;;9.00;100.00;-18034.84;5053190;28;20224;-57
2022/10/30 01:50:01;;;;;;;24.10;22.00;;;;;;;9.05;100.00;-18036.06;5035350;28;20209;-55
2022/10/30 01:52:38;;;;;;;21.70;19.80;;;;;;;8.80;100.00;-18030.00;5040168;28;20193;-57
2022/10/30 01:55:15;;;;;;;19.73;18.17;;;;;;;8.89;100.00;-18032.19;5053032;28;20193;-56
2022/10/30 01:57:49;;;;;;;18.57;17.23;;;;;;;8.85;100.00;-18031.22;5052806;28;20185;-56
2022/10/30 02:00:18;;;;;;;19.80;18.07;;;;;;;8.84;100.00;-18029.25;5052734;28;20276;-56
2022/10/30 02:02:46;;;;;;;22.53;20.20;;;;;;;8.90;100.00;-18030.69;5052741;28;20280;-57
2022/10/30 02:05:25;;;;;;;23.20;20.93;;;;;;;8.95;100.00;-18031.78;5052618;28;20193;-55
2022/10/30 02:07:52;;;;;;;43.97;26.87;;;;;;;8.85;100.00;-18029.47;5052941;28;20208;-56
2022/10/30 02:10:19;;;;;;;58.13;29.80;;;;;;;8.79;100.00;-18028.03;5052587;28;20196;-56
2022/10/30 02:12:47;;;;;;;51.47;29.90;;;;;;;8.91;100.00;-18032.69;5052625;28;20655;-56
2022/10/30 02:15:14;;;;;;;70.70;32.53;;;;;;;8.81;100.00;-18030.25;5052422;28;20189;-56
2022/10/30 02:17:41;;;;;;;78.63;35.40;;;;;;;8.83;100.00;-18030.84;5052913;28;20555;-57
2022/10/30 02:20:15;;;;;;;80.43;38.83;;;;;;;8.77;100.00;-18029.41;5052261;28;20189;-56
2022/10/30 02:22:42;;;;;;;134.50;47.93;;;;;;;8.80;100.00;-18030.13;5052608;28;20193;-56
2022/10/30 02:25:09;;;;;;;98.20;44.40;;;;;;;8.67;100.00;-18027.09;5052096;28;20674;-56
2022/10/30 02:27:36;;;;;;;120.83;46.50;;;;;;;8.53;100.00;-18023.72;5052413;28;20676;-56
2022/10/30 02:30:04;;;;;;;134.37;44.83;;;;;;;8.56;100.00;-18022.47;5051976;28;20598;-56
2022/10/30 02:32:31;;;;;;;152.63;43.63;;;;;;;8.72;100.00;-18026.34;5052074;28;20196;-56
2022/10/30 02:34:58;;;;;;;139.03;42.47;;;;;;;8.75;100.00;-18027.06;5052443;28;20186;-57
2022/10/30 02:37:27;;;;;;;131.47;45.17;;;;;;;8.69;100.00;-17708.91;5052157;28;20185;-56
2022/10/30 02:39:54;;;;;;;145.03;45.57;;;;;;;8.67;100.00;-18025.25;5052313;28;20189;-56
2022/10/30 02:42:22;;;;;;;141.60;45.17;;;;;;;8.76;100.00;-18027.19;5052388;28;20193;-56
2022/10/30 02:44:48;;;;;;;154.83;46.63;;;;;;;8.73;100.00;-17709.75;5052336;28;20182;-56
2022/10/30 02:47:15;;;;;;;131.60;47.57;;;;;;;8.67;100.00;-18025.13;5052523;28;20498;-56
2022/10/30 02:49:42;;;;;;;161.60;46.93;;;;;;;8.91;100.00;-18030.81;5052165;28;20322;-56
2022/10/30 02:52:09;;;;;;;114.03;46.77;;;;;;;8.78;100.00;-18027.66;5050997;28;20189;-56
2022/10/30 02:54:38;;;;;;;117.70;46.67;;;;;;;9.06;100.00;-18034.44;5051733;28;20195;-56
2022/10/30 02:57:05;;;;;;;164.43;47.73;;;;;;;9.08;100.00;-18035.06;5051756;28;20185;-56
2022/10/30 02:59:31;;;;;;;154.00;46.33;;;;;;;9.21;100.00;-18038.06;5051986;28;20208;-58
2022/10/30 03:01:58;;;;;;;133.50;46.57;;;;;;;9.22;100.00;-18038.19;5051742;28;20190;-56
2022/10/30 03:04:25;;;;;;;260.93;52.13;;;;;;;9.28;100.00;-18039.78;5051697;28;20185;-56
2022/10/30 03:06:52;;;;;;;295.50;49.80;;;;;;;9.20;100.00;-18037.84;5051582;28;20192;-56
2022/10/30 03:09:19;;;;;;;204.40;44.37;;;;;;;9.34;100.00;-18041.22;5051320;28;20210;-58
2022/10/30 03:11:47;;;;;;;181.40;44.40;;;;;;;9.32;100.00;-18040.63;5051401;28;20196;-56
2022/10/30 03:14:14;;;;;;;286.20;48.50;;;;;;;9.34;100.00;-18041.09;5051484;28;20196;-56
2022/10/30 03:16:41;;;;;;;261.90;49.77;;;;;;;9.37;100.00;-18041.81;5051831;28;20197;-56
2022/10/30 03:19:08;;;;;;;335.93;55.47;;;;;;;9.40;100.00;-18042.69;5051726;28;20181;-56
2022/10/30 03:21:35;;;;;;;497.90;79.47;;;;;;;9.42;100.00;-18043.16;5051504;28;20182;-56
2022/10/30 03:24:02;;;;;;;256.37;57.67;;;;;;;9.18;100.00;-18037.34;5051641;28;20212;-56
2022/10/30 03:26:29;;;;;;;481.63;81.13;;;;;;;9.24;100.00;-18038.69;5051701;28;20185;-57
2022/10/30 03:28:58;;;;;;;285.60;65.30;;;;;;;9.17;100.00;-18037.22;5051440;28;20209;-56
2022/10/30 03:31:25;;;;;;;293.47;68.73;;;;;;;9.15;100.00;-18036.63;5050176;28;20233;-56
2022/10/30 03:33:51;;;;;;;587.73;101.40;;;;;;;9.22;100.00;-18040.06;5051372;28;20185;-57
2022/10/30 03:36:18;;;;;;;392.00;83.97;;;;;;;9.38;100.00;-18042.06;5051342;28;20186;-57
2022/10/30 03:38:45;;;;;;;499.23;91.70;;;;;;;8.99;100.00;-18032.75;5055166;28;20178;-56
2022/10/30 03:41:12;;;;;;;205.00;74.67;;;;;;;9.28;100.00;-18039.78;5055351;28;20193;-56
2022/10/30 03:43:39;;;;;;;444.83;88.63;;;;;;;9.32;100.00;-18040.75;5055296;28;20199;-56
2022/10/30 03:46:09;;;;;;;396.93;87.73;;;;;;;9.30;100.00;-18040.25;5055399;28;20197;-56
2022/10/30 03:48:36;;;;;;;333.77;82.53;;;;;;;9.35;100.00;-18041.34;5055180;28;20236;-56
2022/10/30 03:51:04;;;;;;;641.47;112.73;;;;;;;9.35;100.00;-18041.47;5055396;28;20191;-56
2022/10/30 03:53:31;;;;;;;638.57;109.80;;;;;;;9.28;100.00;-18039.66;5055028;28;20187;-56
2022/10/30 03:55:59;;;;;;;646.17;117.37;;;;;;;9.36;100.00;-18041.72;5055345;28;20666;-55
2022/10/30 03:58:26;;;;;;;316.80;81.33;;;;;;;9.31;100.00;-18040.50;5055380;28;20552;-57
2022/10/30 04:00:53;;;;;;;495.73;94.57;;;;;;;9.35;100.00;-18041.47;5055388;28;20192;-57
2022/10/30 04:03:22;;;;;;;518.83;98.07;;;;;;;9.35;100.00;-18041.47;5055229;28;20553;-56
2022/10/30 04:05:50;;;;;;;268.97;72.83;;;;;;;9.13;100.00;-18036.13;5055172;28;20275;-55
2022/10/30 04:08:17;;;;;;;267.70;73.30;;;;;;;9.20;100.00;-18037.84;5055144;28;20262;-56
2022/10/30 04:10:45;;;;;;;469.17;91.97;;;;;;;9.23;100.00;-18038.44;5055108;28;20239;-56
2022/10/30 04:13:13;;;;;;;368.80;76.33;;;;;;;9.21;100.00;-18038.06;5055218;28;20581;-56
2022/10/30 04:15:40;;;;;;;610.30;107.03;;;;;;;9.28;100.00;-18039.66;5054661;28;20189;-56
2022/10/30 04:18:10;;;;;;;522.30;90.60;;;;;;;9.33;100.00;-18040.88;5055007;28;20208;-56
2022/10/30 04:20:39;;;;;;;597.63;104.03;;;;;;;9.25;100.00;-18039.03;5054907;28;20563;-56
2022/10/30 04:23:07;;;;;;;579.57;98.37;;;;;;;9.29;100.00;-18039.91;5054572;28;20192;-56
2022/10/30 04:25:35;;;;;;;643.07;101.93;;;;;;;9.37;100.00;-18041.94;5055115;28;20190;-57
2022/10/30 04:28:03;;;;;;;490.63;80.30;;;;;;;9.35;100.00;-17724.31;5054828;28;20190;-58
2022/10/30 04:30:32;;;;;;;264.10;64.00;;;;;;;9.18;100.00;-17720.41;5054108;28;20243;-56
2022/10/30 04:33:00;;;;;;;377.40;70.17;;;;;;;9.22;100.00;-17721.25;5053259;28;20217;-56
2022/10/30 04:35:29;;;;;;;441.90;75.90;;;;;;;9.17;100.00;-17720.06;5053447;28;20208;-56
2022/10/30 04:37:58;;;;;;;420.17;73.73;;;;;;;9.05;100.00;-17717.22;5053462;28;20211;-57
2022/10/30 04:40:27;;;;;;;328.60;63.73;;;;;;;9.03;100.00;-17716.75;5053222;28;20207;-56
2022/10/30 04:42:55;;;;;;;205.17;59.10;;;;;;;8.91;100.00;-17713.91;5053053;28;20193;-56
2022/10/30 04:45:22;;;;;;;374.53;73.23;;;;;;;9.00;100.00;-18033.00;5053554;28;20190;-59
2022/10/30 04:47:49;;;;;;;349.07;69.90;;;;;;;9.15;100.00;-18036.63;5053163;28;20632;-56
2022/10/30 04:50:17;;;;;;;243.97;54.97;;;;;;;8.95;100.00;-17714.84;5053201;28;20255;-56
2022/10/30 04:52:44;;;;;;;342.87;61.30;;;;;;;9.00;100.00;-17716.03;5053198;28;20185;-56
2022/10/30 04:55:12;;;;;;;206.03;46.43;;;;;;;8.88;100.00;-17713.19;5053250;28;20181;-56
2022/10/30 04:57:39;;;;;;;156.37;42.07;;;;;;;9.01;100.00;-17399.38;5053017;28;20675;-56
2022/10/30 05:00:11;;;;;;;168.60;42.87;;;;;;;8.93;100.00;-17397.53;5052672;28;20192;-56
2022/10/30 05:02:38;;;;;;;177.63;40.70;;;;;;;8.77;100.00;-17393.69;5053046;28;20567;-56
2022/10/30 05:05:05;;;;;;;178.27;38.47;;;;;;;8.56;100.00;-17389.06;5052878;28;20173;-56
2022/10/30 05:07:32;;;;;;;158.23;39.20;;;;;;;8.73;100.00;-17709.63;5053114;28;20288;-56
2022/10/30 05:09:59;;;;;;;256.70;42.40;;;;;;;8.71;100.00;-17709.38;5053075;28;20557;-57
2022/10/30 05:12:27;;;;;;;325.47;44.93;;;;;;;8.84;100.00;-17712.22;5052985;28;20588;-57
2022/10/30 05:14:54;;;;;;;245.57;41.30;;;;;;;8.83;100.00;-17712.13;5052488;28;20192;-56
2022/10/30 05:17:21;;;;;;;190.97;37.37;;;;;;;8.81;100.00;-17711.53;5052590;28;20200;-58
2022/10/30 05:19:48;;;;;;;167.10;39.73;;;;;;;8.75;100.00;-17393.34;5052670;28;20192;-55
2022/10/30 05:22:15;;;;;;;180.33;36.30;;;;;;;8.84;100.00;-17395.31;5052826;28;20315;-56
2022/10/30 05:24:42;;;;;;;170.23;37.67;;;;;;;8.95;100.00;-17397.88;5052454;28;20212;-56
2022/10/30 05:27:09;;;;;;;158.63;36.03;;;;;;;9.02;100.00;-17399.50;5052935;28;20189;-55
2022/10/30 05:29:37;;;;;;;153.20;36.73;;;;;;;9.08;100.00;-17400.88;5052384;28;20282;-56
2022/10/30 05:32:05;;;;;;;135.67;35.50;;;;;;;8.98;100.00;-17081.53;5010635;28;1221096;-55
2022/10/30 05:34:32;;;;;;;128.97;34.67;;;;;;;9.14;100.00;-17402.28;5053248;28;20196;-56
2022/10/30 05:37:00;;;;;;;73.53;32.47;;;;;;;9.03;100.00;-17082.78;5053620;28;20644;-56
2022/10/30 05:39:27;;;;;;;50.23;30.00;;;;;;;9.08;100.00;-17401.00;5053268;28;20186;-57
2022/10/30 05:41:54;;;;;;;41.60;27.20;;;;;;;9.38;100.00;-17407.72;5053146;28;20196;-57
2022/10/30 05:44:21;;;;;;;34.37;25.93;;;;;;;9.63;100.00;-17730.81;5053109;28;20190;-57
2022/10/30 05:46:49;;;;;;;28.50;25.60;;;;;;;9.88;100.00;-17736.75;5053424;28;20197;-56
2022/10/30 05:49:16;;;;;;;28.77;25.67;;;;;;;9.99;100.00;-17421.84;5053018;28;20205;-57
2022/10/30 05:51:43;;;;;;;37.30;27.63;;;;;;;10.04;100.00;-17423.00;5053344;28;20262;-56
2022/10/30 05:54:10;;;;;;;34.83;28.10;;;;;;;10.33;100.00;-17747.28;5052727;28;20186;-56
2022/10/30 05:56:37;;;;;;;33.83;28.97;;;;;;;10.38;100.00;-18066.13;5052644;28;20228;-56
2022/10/30 05:59:06;;;;;;;35.43;30.00;;;;;;;10.53;100.00;-18071.63;5052774;28;20193;-56
2022/10/30 06:01:33;;;;;;;35.97;29.33;;;;;;;10.63;100.00;-18073.78;5034912;28;20188;-57
2022/10/30 06:04:02;;;;;;;38.20;30.17;;;;;;;10.63;100.00;-18073.78;5053065;28;20223;-57
2022/10/30 06:06:29;;;;;;;40.63;31.83;;;;;;;10.74;100.00;-18076.56;5052652;28;20193;-57
2022/10/30 06:08:56;;;;;;;47.13;36.40;;;;;;;10.67;100.00;-18072.91;5052953;28;20268;-56
2022/10/30 06:11:23;;;;;;;50.93;37.50;;;;;;;10.67;100.00;-18072.91;5052881;28;20217;-56
2022/10/30 06:13:50;;;;;;;53.60;38.97;;;;;;;10.63;100.00;-16800.56;5052867;28;20259;-56
2022/10/30 06:16:16;;;;;;;51.70;39.67;;;;;;;10.43;100.00;-17431.78;5052733;28;20186;-55
2022/10/30 06:18:46;;;;;;;66.13;42.23;;;;;;;10.65;100.00;-18072.41;5052987;28;20217;-57
2022/10/30 06:21:15;;;;;;;69.60;44.63;;;;;;;10.58;100.00;-18072.59;5035391;28;20676;-56
2022/10/30 06:23:42;;;;;;;56.63;41.13;;;;;;;10.47;100.00;-18070.06;5052655;28;20636;-56
2022/10/30 06:26:08;;;;;;;56.17;43.23;;;;;;;10.75;100.00;-18076.69;5052624;28;20558;-56
2022/10/30 06:28:35;;;;;;;50.60;40.00;;;;;;;10.85;100.00;-18079.09;5052626;28;20189;-57
2022/10/30 06:31:02;;;;;;;46.20;38.50;;;;;;;10.78;100.00;-18077.41;5052155;28;20231;-56
2022/10/30 06:33:29;;;;;;;46.90;38.43;;;;;;;10.98;100.00;-18082.38;5052170;28;20185;-55
2022/10/30 06:35:56;;;;;;;57.63;39.10;;;;;;;11.06;100.00;-18084.06;5052183;28;20189;-56
2022/10/30 06:38:24;;;;;;;51.53;39.23;;;;;;;11.30;100.00;-18089.97;5052291;28;20189;-56
2022/10/30 06:40:51;;;;;;;45.73;37.13;;;;;;;11.32;100.00;-18090.47;5051790;28;20191;-56
2022/10/30 06:43:19;;;;;;;43.37;32.83;;;;;;;11.82;100.00;-18102.41;5051872;28;20188;-56
2022/10/30 06:45:46;;;;;;;36.97;31.43;;;;;;;12.19;100.00;-18109.34;5052237;28;20221;-57
2022/10/30 06:48:13;;;;;;;33.70;27.40;;;;;;;12.60;100.00;-13972.09;5051756;28;20189;-55
2022/10/30 06:50:40;;;;;;;26.80;23.73;;;;;;;13.41;100.00;-11428.19;5051835;28;20217;-56
2022/10/30 06:53:07;;;;;;;23.33;20.93;;;;;;;14.12;100.00;6866.63;5052185;28;20577;-56
2022/10/30 06:55:35;;;;;;;22.60;20.30;;;;;;;15.16;100.00;38646.34;5051751;28;20186;-57
2022/10/30 06:58:02;;;;;;;21.23;19.43;;;;;;;15.69;100.00;93223.34;5051841;28;20203;-56
2022/10/30 07:00:29;;;;;;;25.97;23.47;;;;;;;16.45;100.00;150173.28;5051959;28;20181;-56
2022/10/30 07:03:00;;;;;;;30.13;27.30;;;;;;;16.99;100.00;150306.66;5051963;28;20556;-56
2022/10/30 07:05:27;;;;;;;30.27;27.27;;;;;;;17.11;100.00;150337.13;5051971;28;20275;-57
2022/10/30 07:07:57;;;;;;;35.03;29.67;;;;;;;17.29;100.00;150382.88;5051582;28;20192;-57
2022/10/30 07:10:24;;;;;;;37.60;29.87;;;;;;;17.03;100.00;150316.81;5050592;28;20205;-57
2022/10/30 07:12:53;;;;;;;32.93;29.57;;;;;;;18.43;100.00;150670.22;5051688;28;20205;-58
2022/10/30 07:15:20;;;;;;;32.37;29.13;;;;;;;19.08;100.00;150834.34;5051748;28;20212;-56
2022/10/30 07:17:55;;;;;;;33.27;29.80;;;;;;;19.08;100.00;150833.06;5051585;28;20190;-58
2022/10/30 07:20:23;;;;;;;32.33;29.00;;;;;;;20.43;100.00;151173.00;5033947;28;20192;-58
2022/10/30 07:22:50;;;;;;;34.77;28.57;;;;;;;21.14;100.00;151351.38;5051470;28;20192;-58
2022/10/30 07:25:17;;;;;;;29.70;26.63;;;;;;;21.29;100.00;151390.91;5051724;28;20192;-57
2022/10/30 07:27:44;;;;;;;30.95;27.60;;;;;;;21.28;100.00;151388.34;5051427;28;20196;-56
2022/10/30 07:30:14;;;;;;;30.13;27.13;;;;;;;21.90;100.00;151542.59;5051106;28;20233;-58
2022/10/30 07:32:42;;;;;;;30.25;27.10;;;;;;;22.27;100.00;151638.25;5051513;28;20276;-58
2022/10/30 07:35:11;;;;;;;30.48;27.33;;;;;;;22.57;100.00;151712.22;5051333;28;20193;-57
2022/10/30 07:37:38;;;;;;;28.50;25.75;;;;;;;22.23;100.00;151626.78;5051673;28;20189;-56
2022/10/30 07:40:06;;;;;;;27.98;25.27;;;;;;;22.35;100.00;151656.09;5051634;28;20706;-57
2022/10/30 07:42:34;;;;;;;28.45;25.55;;;;;;;22.80;100.00;151770.91;5033790;28;20225;-57
2022/10/30 07:45:00;;;;;;;28.95;26.35;;;;;;;22.78;100.00;151765.81;5051367;28;20200;-57
2022/10/30 07:47:29;;;;;;;28.00;24.38;;;;;;;23.29;100.00;151894.69;5051610;28;20202;-57
2022/10/30 07:49:56;;;;;;;26.60;24.02;;;;;;;23.58;100.00;151967.47;5051264;28;20201;-57
2022/10/30 07:52:23;;;;;;;27.55;25.13;;;;;;;23.99;100.00;152070.81;5051107;28;20632;-57
2022/10/30 07:54:49;;;;;;;27.55;24.88;;;;;;;23.83;100.00;152030.00;5051429;28;20185;-56
2022/10/30 07:57:16;;;;;;;28.35;25.65;;;;;;;24.80;100.00;152276.47;5051123;28;20190;-57
2022/10/30 07:59:43;;;;;;;27.30;24.73;;;;;;;24.79;100.00;152272.63;5051237;28;20268;-57
2022/10/30 08:02:10;;;;;;;27.35;24.63;;;;;;;25.46;96.72;152442.63;5051160;28;20272;-57
2022/10/30 08:04:38;;;;;;;25.80;23.30;;;;;;;26.01;94.31;152581.97;5051029;28;20196;-57
2022/10/30 08:07:05;;;;;;;26.85;24.52;;;;;;;26.59;88.41;152729.03;5051242;28;20266;-57
2022/10/30 08:09:32;;;;;;;26.80;24.23;;;;;;;26.64;86.91;152741.84;5051134;28;20196;-57
2022/10/30 08:11:59;;;;;;;24.30;21.73;;;;;;;26.55;86.81;152718.81;5051296;28;20185;-57
2022/10/30 08:14:26;;;;;;;25.38;20.85;;;;;;;26.57;86.32;152723.91;5051173;28;20186;-56
2022/10/30 08:16:53;;;;;;;22.60;20.52;;;;;;;26.80;84.03;152781.47;5051219;28;20680;-57
2022/10/30 08:19:20;;;;;;;22.15;20.45;;;;;;;26.71;83.24;152758.44;5051230;28;20208;-57
2022/10/30 08:21:48;;;;;;;20.38;18.98;;;;;;;27.73;77.93;153015.66;5051115;28;20186;-57
2022/10/30 08:24:15;;;;;;;21.45;17.98;;;;;;;27.77;75.82;153025.91;5053340;28;20185;-58
2022/10/30 08:26:42;;;;;;;18.35;16.75;;;;;;;28.15;76.41;153123.22;5054816;28;20189;-58
2022/10/30 08:29:09;;;;;;;19.27;17.38;;;;;;;27.75;75.85;153020.81;5054618;28;20190;-58
2022/10/30 08:31:36;;;;;;;20.02;18.05;;;;;;;28.10;70.39;153110.41;5054424;28;20239;-57
2022/10/30 08:34:04;;;;;;;19.23;17.27;;;;;;;28.36;68.26;153175.69;5054887;28;20190;-56
2022/10/30 08:36:31;;;;;;;19.67;17.20;;;;;;;28.77;66.52;153279.47;5054458;28;20185;-57
2022/10/30 08:38:59;;;;;;;18.73;17.17;;;;;;;28.84;65.20;153297.38;5054679;28;20588;-58
2022/10/30 08:41:26;;;;;;;23.85;19.58;;;;;;;28.60;66.79;153237.19;5054328;28;20188;-57
2022/10/30 08:43:53;;;;;;;19.27;17.63;;;;;;;29.08;62.35;153358.84;5054302;28;20191;-58
2022/10/30 08:46:19;;;;;;;17.02;15.63;;;;;;;29.11;59.79;153366.50;5054133;28;20208;-59
2022/10/30 08:48:46;;;;;;;17.27;15.48;;;;;;;29.86;56.77;153556.19;5054423;28;20182;-57
2022/10/30 08:51:13;;;;;;;17.00;14.60;;;;;;;30.71;54.36;153772.91;5053886;28;20221;-58
2022/10/30 08:53:40;;;;;;;16.15;14.65;;;;;;;31.11;53.29;153874.22;5054072;28;20219;-57
2022/10/30 08:56:08;;;;;;;15.90;14.35;;;;;;;30.22;56.41;153648.47;5054145;28;20196;-58
2022/10/30 08:58:35;;;;;;;14.95;13.63;;;;;;;30.17;58.13;153635.66;5054346;28;20193;-58
2022/10/30 09:01:02;;;;;;;16.60;13.27;;;;;;;30.42;56.90;153698.50;5054090;28;20186;-58
2022/10/30 09:03:29;;;;;;;15.88;14.35;;;;;;;31.11;54.42;153872.91;5054161;28;20553;-57
2022/10/30 09:05:58;;;;;;;14.52;13.52;;;;;;;30.81;53.31;153798.50;5054374;28;20300;-56
2022/10/30 09:08:26;;;;;;;14.27;13.40;;;;;;;31.45;51.94;153958.84;5054338;28;20638;-57
2022/10/30 09:10:56;;;;;;;12.25;11.65;;;;;;;32.20;48.63;154148.81;5054117;28;20698;-57
2022/10/30 09:13:25;;;;;;;16.15;11.20;;;;;;;32.24;47.40;154159.09;5053980;28;20181;-57
2022/10/30 09:15:52;;;;;;;11.43;10.32;;;;;;;32.98;45.73;154347.78;5054072;28;20177;-58
2022/10/30 09:18:19;;;;;;;8.88;8.48;;;;;;;32.69;44.58;154274.63;5053586;28;20185;-56
2022/10/30 09:20:49;;;;;;;8.65;8.35;;;;;;;31.39;47.04;153943.47;5053673;28;20186;-57
2022/10/30 09:23:16;;;;;;;9.00;8.40;;;;;;;31.49;47.16;153970.38;5054014;28;20181;-57
2022/10/30 09:25:43;;;;;;;8.95;8.57;;;;;;;31.78;47.08;154043.59;5053772;28;20212;-58
2022/10/30 09:28:10;;;;;;;8.85;8.35;;;;;;;31.98;46.30;154094.91;5053881;28;20189;-57
2022/10/30 09:30:38;;;;;;;8.32;8.02;;;;;;;32.62;45.22;154256.66;5053078;28;20229;-57
2022/10/30 09:33:05;;;;;;;10.18;9.52;;;;;;;32.78;44.66;154296.44;5053661;28;20220;-57
2022/10/30 09:35:32;;;;;;;10.57;9.95;;;;;;;32.34;45.48;154184.72;5052164;28;20200;-57
2022/10/30 09:37:59;;;;;;;9.98;8.98;;;;;;;32.50;44.82;154225.81;5053656;28;20667;-57
2022/10/30 09:40:40;;;;;;;10.38;8.80;;;;;;;32.20;46.00;154148.81;5053499;28;20658;-57
2022/10/30 09:43:19;;;;;;;9.30;8.45;;;;;;;31.50;46.95;153971.69;5051703;28;20185;-57
2022/10/30 09:46:12;;;;;;;10.52;9.93;;;;;;;31.24;48.42;153907.56;5053134;28;20193;-57
2022/10/30 09:48:59;;;;;;;9.80;8.93;;;;;;;31.78;47.07;154043.59;5053135;28;20186;-58
2022/10/30 09:51:59;;;;;;;10.02;9.43;;;;;;;30.45;50.72;153706.22;5053018;28;20575;-58
2022/10/30 09:54:36;;;;;;;9.70;9.02;;;;;;;30.85;50.63;153807.53;5052861;28;20189;-57
2022/10/30 09:57:13;;;;;;;10.02;9.32;;;;;;;30.87;49.98;153812.63;5053030;28;20193;-57
2022/10/30 09:59:51;;;;;;;10.40;9.02;;;;;;;31.20;49.53;153897.28;5052952;28;20191;-56
2022/10/30 10:02:34;;;;;;;10.40;9.57;;;;;;;31.22;49.22;153902.44;5052926;28;20182;-56
2022/10/30 10:05:10;;;;;;;9.68;8.73;;;;;;;31.06;48.43;153861.44;5053114;28;20207;-57
2022/10/30 10:07:41;;;;;;;8.85;8.23;;;;;;;30.43;50.53;153701.03;5053053;28;20200;-57
2022/10/30 10:10:16;;;;;;;8.70;8.10;;;;;;;30.36;51.65;153683.09;5052397;28;20268;-57
2022/10/30 10:12:47;;;;;;;7.55;7.25;;;;;;;30.23;50.70;153651.06;5052698;28;20188;-57
2022/10/30 10:15:20;;;;;;;8.15;7.50;;;;;;;30.21;50.85;153645.97;5052927;28;20185;-56
2022/10/30 10:17:48;;;;;;;11.43;7.35;;;;;;;30.29;51.12;153666.47;5052494;28;20185;-57
2022/10/30 10:20:27;;;;;;;8.65;6.57;;;;;;;30.24;50.92;153653.63;5053294;28;20624;-57
2022/10/30 10:22:57;;;;;;;7.38;6.82;;;;;;;29.97;51.09;153583.13;5052969;28;20243;-57
2022/10/30 10:25:25;;;;;;;7.20;6.53;;;;;;;30.28;51.37;153663.88;5052693;28;20194;-57
2022/10/30 10:28:03;;;;;;;7.13;6.60;;;;;;;30.26;51.21;153657.44;5052224;28;20200;-57
2022/10/30 10:30:36;;;;;;;7.78;6.57;;;;;;;30.53;49.12;153726.72;5052208;28;20243;-57
2022/10/30 10:33:24;;;;;;;6.65;6.25;;;;;;;30.89;49.36;153816.50;5052579;28;20196;-57
2022/10/30 10:36:02;;;;;;;6.38;6.15;;;;;;;30.96;48.30;153835.72;5052523;28;20244;-57
2022/10/30 10:38:56;;;;;;;10.80;5.82;;;;;;;30.90;48.49;153820.31;5052163;28;20260;-56
2022/10/30 10:41:35;;;;;;;6.93;6.05;;;;;;;30.48;48.94;153713.91;5044776;28;20215;-57
2022/10/30 10:44:17;;;;;;;5.75;5.30;;;;;;;30.56;49.18;153734.41;5052555;28;20192;-57
2022/10/30 10:46:58;;;;;;;6.80;6.30;;;;;;;30.39;49.26;153692.06;5051829;28;20288;-56
2022/10/30 10:49:39;;;;;;;7.45;5.95;;;;;;;31.37;48.25;153939.63;5051975;28;20200;-56
2022/10/30 10:52:10;;;;;;;5.47;5.13;;;;;;;31.48;45.93;153966.56;5035276;28;20287;-57
2022/10/30 10:54:43;;;;;;;5.93;5.20;;;;;;;32.03;44.85;154107.72;5052145;28;20559;-56
2022/10/30 10:57:17;;;;;;;5.82;5.43;;;;;;;33.02;42.43;154358.03;5052037;28;20201;-56
2022/10/30 10:59:49;;;;;;;5.82;5.32;;;;;;;33.75;41.14;154544.31;5052069;28;20200;-56
2022/10/30 11:02:31;;;;;;;6.85;6.25;;;;;;;34.00;40.27;154605.97;5051921;28;20556;-57
2022/10/30 11:05:07;;;;;;;6.30;5.75;;;;;;;34.88;37.79;154830.94;5051588;28;20193;-58
2022/10/30 11:07:45;;;;;;;6.53;6.10;;;;;;;32.63;41.31;154259.25;5051545;28;20181;-56
2022/10/30 11:10:14;;;;;;;6.10;5.63;;;;;;;30.66;46.96;153760.06;5051886;28;20191;-57
2022/10/30 11:12:41;;;;;;;6.55;5.93;;;;;;;29.46;50.68;153454.97;5051878;28;20618;-57
2022/10/30 11:15:34;;;;;;;8.27;5.90;;;;;;;28.01;58.36;153087.31;5051870;28;20189;-56
2022/10/30 11:18:04;;;;;;;6.47;5.95;;;;;;;27.32;63.39;152913.28;5051558;28;20196;-56
2022/10/30 11:20:40;;;;;;;5.97;5.68;;;;;;;26.65;68.76;152744.34;5051520;28;20192;-57